AAL956 KMIA-KIAH
Flight info
| Callsign | AAL956 |
|---|---|
| Flight time | 2h 26m |
| Altitude | 36000 |
| Route | GLADZ4 BAGGS REMIS Y280 LEV LINKK1 |
| Aircraft | B738/M-SDE2E3FGHIRWXY/LB1 |
Departure
| Time | 2026-05-06 00:17 |
|---|---|
| Airport | Miami International Airport (KMIA) |
Arrival
| Time | 2026-05-06 02:43 |
|---|---|
| Airport | George Bush Intercontinental Airport (KIAH) |
| Time | Latitude | Longitude | Altitude | Speed | Heading |
|---|---|---|---|---|---|
| 2026-05-06 00:01 | 25.79818 | -80.28318 | -3 ft | 0 kts | 177° |
| 2026-05-06 00:03 | 25.79823 | -80.28319 | -2 ft | 2 kts | 176° |
| 2026-05-06 00:03 | 25.79839 | -80.28320 | 15 ft | 2 kts | 177° |
| 2026-05-06 00:03 | 25.79856 | -80.28320 | 18 ft | 2 kts | 179° |
| 2026-05-06 00:03 | 25.79872 | -80.28320 | 17 ft | 2 kts | 185° |
| 2026-05-06 00:04 | 25.79888 | -80.28314 | 18 ft | 2 kts | 251° |
| 2026-05-06 00:04 | 25.79889 | -80.28307 | 18 ft | 0 kts | 265° |
| 2026-05-06 00:10 | 25.79889 | -80.28310 | 15 ft | 1 kts | 265° |
| 2026-05-06 00:11 | 25.79887 | -80.28341 | 15 ft | 6 kts | 265° |
| 2026-05-06 00:11 | 25.79887 | -80.28399 | 16 ft | 8 kts | 282° |
| 2026-05-06 00:11 | 25.79930 | -80.28451 | 16 ft | 11 kts | 319° |
| 2026-05-06 00:11 | 25.79944 | -80.28534 | 18 ft | 12 kts | 268° |
| 2026-05-06 00:12 | 25.79941 | -80.28634 | 20 ft | 14 kts | 268° |
| 2026-05-06 00:12 | 25.79936 | -80.28746 | 22 ft | 16 kts | 267° |
| 2026-05-06 00:12 | 25.79965 | -80.28831 | 22 ft | 10 kts | 349° |
| 2026-05-06 00:12 | 25.80011 | -80.28881 | 21 ft | 12 kts | 273° |
| 2026-05-06 00:13 | 25.80006 | -80.28987 | 21 ft | 15 kts | 264° |
| 2026-05-06 00:13 | 25.80004 | -80.29110 | 21 ft | 17 kts | 268° |
| 2026-05-06 00:13 | 25.79996 | -80.29249 | 21 ft | 19 kts | 268° |
| 2026-05-06 00:13 | 25.79991 | -80.29416 | 16 ft | 24 kts | 268° |
| 2026-05-06 00:14 | 25.79981 | -80.29614 | 14 ft | 27 kts | 267° |
| 2026-05-06 00:14 | 25.79975 | -80.29791 | 13 ft | 18 kts | 268° |
| 2026-05-06 00:14 | 25.79972 | -80.29935 | 12 ft | 19 kts | 278° |
| 2026-05-06 00:14 | 25.80005 | -80.30072 | 13 ft | 18 kts | 284° |
| 2026-05-06 00:15 | 25.80023 | -80.30119 | 15 ft | 1 kts | 318° |
| 2026-05-06 00:15 | 25.80028 | -80.30121 | 15 ft | 1 kts | 335° |
| 2026-05-06 00:15 | 25.80048 | -80.30123 | 15 ft | 4 kts | 358° |
| 2026-05-06 00:15 | 25.80069 | -80.30112 | 15 ft | 4 kts | 55° |
| 2026-05-06 00:16 | 25.80074 | -80.30078 | 14 ft | 6 kts | 83° |
| 2026-05-06 00:16 | 25.80077 | -80.30021 | 13 ft | 12 kts | 89° |
| 2026-05-06 00:16 | 25.80088 | -80.29717 | 14 ft | 79 kts | 87° |
| 2026-05-06 00:16 | 25.80131 | -80.28812 | 28 ft | 153 kts | 84° |
| 2026-05-06 00:17 | 25.80200 | -80.27491 | 477 ft | 187 kts | 85° |
| 2026-05-06 00:17 | 25.80334 | -80.26072 | 1669 ft | 178 kts | 80° |
| 2026-05-06 00:17 | 25.80452 | -80.24617 | 2305 ft | 201 kts | 87° |
| 2026-05-06 00:17 | 25.80486 | -80.22970 | 2507 ft | 226 kts | 88° |
| 2026-05-06 00:18 | 25.80523 | -80.21165 | 2779 ft | 246 kts | 88° |
| 2026-05-06 00:18 | 25.80610 | -80.19181 | 3167 ft | 265 kts | 79° |
| 2026-05-06 00:18 | 25.81372 | -80.17323 | 3944 ft | 269 kts | 48° |
| 2026-05-06 00:18 | 25.82888 | -80.16125 | 4728 ft | 271 kts | 16° |
| 2026-05-06 00:19 | 25.84745 | -80.15841 | 5593 ft | 271 kts | 359° |
| 2026-05-06 00:19 | 25.86621 | -80.15785 | 6439 ft | 275 kts | 359° |
| 2026-05-06 00:19 | 25.88547 | -80.15734 | 7250 ft | 277 kts | 358° |
| 2026-05-06 00:19 | 25.90456 | -80.16000 | 7966 ft | 280 kts | 340° |
| 2026-05-06 00:20 | 25.92303 | -80.16687 | 8791 ft | 282 kts | 339° |
| 2026-05-06 00:20 | 25.94189 | -80.17374 | 9605 ft | 285 kts | 339° |
| 2026-05-06 00:20 | 25.96086 | -80.18052 | 10360 ft | 289 kts | 337° |
| 2026-05-06 00:20 | 25.97856 | -80.19200 | 10585 ft | 306 kts | 313° |
| 2026-05-06 00:21 | 25.99039 | -80.21228 | 10761 ft | 325 kts | 289° |
| 2026-05-06 00:21 | 25.99487 | -80.23767 | 10974 ft | 343 kts | 277° |
| 2026-05-06 00:21 | 25.99761 | -80.26401 | 11430 ft | 352 kts | 276° |
| 2026-05-06 00:21 | 25.99890 | -80.29140 | 12029 ft | 356 kts | 271° |
| 2026-05-06 00:22 | 25.99845 | -80.31907 | 12646 ft | 360 kts | 269° |
| 2026-05-06 00:22 | 25.99792 | -80.34705 | 13279 ft | 363 kts | 270° |
| 2026-05-06 00:22 | 25.99767 | -80.37526 | 13868 ft | 367 kts | 271° |
| 2026-05-06 00:22 | 25.99742 | -80.40378 | 14412 ft | 370 kts | 268° |
| 2026-05-06 00:23 | 25.99173 | -80.43193 | 14970 ft | 376 kts | 250° |
| 2026-05-06 00:23 | 25.97853 | -80.45726 | 15530 ft | 383 kts | 236° |
| 2026-05-06 00:23 | 25.96230 | -80.48055 | 16054 ft | 386 kts | 234° |
| 2026-05-06 00:23 | 25.94534 | -80.50394 | 16566 ft | 390 kts | 233° |
| 2026-05-06 00:24 | 25.92820 | -80.52747 | 17070 ft | 393 kts | 234° |
| 2026-05-06 00:24 | 25.91100 | -80.55129 | 17587 ft | 396 kts | 234° |
| 2026-05-06 00:24 | 25.89380 | -80.57533 | 18087 ft | 399 kts | 234° |
| 2026-05-06 00:24 | 25.87652 | -80.59966 | 18534 ft | 402 kts | 234° |
| 2026-05-06 00:25 | 25.85916 | -80.62418 | 18953 ft | 405 kts | 235° |
| 2026-05-06 00:25 | 25.84166 | -80.64891 | 19368 ft | 408 kts | 235° |
| 2026-05-06 00:25 | 25.82405 | -80.67380 | 19782 ft | 410 kts | 235° |
| 2026-05-06 00:25 | 25.80635 | -80.69877 | 20199 ft | 413 kts | 235° |
| 2026-05-06 00:26 | 25.78913 | -80.72385 | 20590 ft | 413 kts | 240° |
| 2026-05-06 00:26 | 25.77725 | -80.75262 | 20961 ft | 409 kts | 256° |
| 2026-05-06 00:26 | 25.76942 | -80.78291 | 21400 ft | 409 kts | 257° |
| 2026-05-06 00:26 | 25.76173 | -80.81337 | 21797 ft | 411 kts | 257° |
| 2026-05-06 00:27 | 25.75370 | -80.84401 | 22174 ft | 413 kts | 257° |
| 2026-05-06 00:27 | 25.74542 | -80.87461 | 22547 ft | 415 kts | 257° |
| 2026-05-06 00:27 | 25.73711 | -80.90495 | 22914 ft | 417 kts | 257° |
| 2026-05-06 00:27 | 25.72864 | -80.93584 | 23259 ft | 419 kts | 257° |
| 2026-05-06 00:28 | 25.72015 | -80.96685 | 23597 ft | 421 kts | 257° |
| 2026-05-06 00:28 | 25.71160 | -80.99806 | 23875 ft | 422 kts | 257° |
| 2026-05-06 00:28 | 25.70305 | -81.02930 | 24152 ft | 424 kts | 257° |
| 2026-05-06 00:28 | 25.69444 | -81.06069 | 24422 ft | 426 kts | 257° |
| 2026-05-06 00:29 | 25.68581 | -81.09215 | 24699 ft | 427 kts | 257° |
| 2026-05-06 00:29 | 25.67716 | -81.12368 | 24973 ft | 429 kts | 257° |
| 2026-05-06 00:29 | 25.66845 | -81.15539 | 25235 ft | 430 kts | 257° |
| 2026-05-06 00:29 | 25.65968 | -81.18725 | 25504 ft | 432 kts | 257° |
| 2026-05-06 00:30 | 25.65322 | -81.21913 | 25721 ft | 427 kts | 270° |
| 2026-05-06 00:30 | 25.65448 | -81.25179 | 25987 ft | 423 kts | 282° |
| 2026-05-06 00:30 | 25.66263 | -81.28286 | 26248 ft | 420 kts | 295° |
| 2026-05-06 00:30 | 25.67544 | -81.31208 | 26518 ft | 420 kts | 298° |
| 2026-05-06 00:31 | 25.68892 | -81.34090 | 26763 ft | 422 kts | 298° |
| 2026-05-06 00:31 | 25.70258 | -81.36981 | 27002 ft | 424 kts | 298° |
| 2026-05-06 00:31 | 25.71606 | -81.39854 | 27248 ft | 425 kts | 298° |
| 2026-05-06 00:31 | 25.72964 | -81.42783 | 27497 ft | 426 kts | 298° |
| 2026-05-06 00:32 | 25.74310 | -81.45718 | 27746 ft | 427 kts | 298° |
| 2026-05-06 00:32 | 25.75655 | -81.48668 | 27987 ft | 429 kts | 298° |
| 2026-05-06 00:32 | 25.77004 | -81.51638 | 28220 ft | 430 kts | 298° |
| 2026-05-06 00:32 | 25.78349 | -81.54605 | 28441 ft | 431 kts | 298° |
| 2026-05-06 00:33 | 25.79697 | -81.57582 | 28683 ft | 432 kts | 298° |
| 2026-05-06 00:33 | 25.81051 | -81.60572 | 28921 ft | 434 kts | 298° |
| 2026-05-06 00:33 | 25.82408 | -81.63570 | 29145 ft | 434 kts | 298° |
| 2026-05-06 00:33 | 25.83761 | -81.66561 | 29469 ft | 433 kts | 298° |
| 2026-05-06 00:34 | 25.85111 | -81.69549 | 29844 ft | 431 kts | 298° |
| 2026-05-06 00:34 | 25.86436 | -81.72481 | 30199 ft | 429 kts | 298° |
| 2026-05-06 00:34 | 25.87777 | -81.75448 | 30504 ft | 428 kts | 298° |
| 2026-05-06 00:34 | 25.89344 | -81.78239 | 30780 ft | 425 kts | 310° |
| 2026-05-06 00:35 | 25.91445 | -81.80529 | 31104 ft | 423 kts | 321° |
| 2026-05-06 00:35 | 25.93782 | -81.82509 | 31469 ft | 421 kts | 322° |
| 2026-05-06 00:35 | 25.96134 | -81.84443 | 31802 ft | 419 kts | 322° |
| 2026-05-06 00:35 | 25.98480 | -81.86362 | 32116 ft | 418 kts | 322° |
| 2026-05-06 00:36 | 26.00816 | -81.88283 | 32452 ft | 416 kts | 322° |
| 2026-05-06 00:36 | 26.03130 | -81.90200 | 32822 ft | 413 kts | 322° |
| 2026-05-06 00:36 | 26.05404 | -81.92097 | 33196 ft | 411 kts | 322° |
| 2026-05-06 00:36 | 26.07679 | -81.94003 | 33529 ft | 409 kts | 321° |
| 2026-05-06 00:37 | 26.09950 | -81.95913 | 33864 ft | 407 kts | 321° |
| 2026-05-06 00:37 | 26.12206 | -81.97814 | 34181 ft | 405 kts | 321° |
| 2026-05-06 00:37 | 26.14453 | -81.99708 | 34480 ft | 403 kts | 321° |
| 2026-05-06 00:37 | 26.16688 | -82.01594 | 34743 ft | 402 kts | 321° |
| 2026-05-06 00:38 | 26.18913 | -82.03473 | 34993 ft | 401 kts | 321° |
| 2026-05-06 00:38 | 26.21138 | -82.05352 | 35256 ft | 400 kts | 321° |
| 2026-05-06 00:38 | 26.23324 | -82.07199 | 35534 ft | 398 kts | 321° |
| 2026-05-06 00:38 | 26.25528 | -82.09063 | 35780 ft | 397 kts | 321° |
| 2026-05-06 00:39 | 26.27728 | -82.10923 | 35994 ft | 397 kts | 321° |
| 2026-05-06 00:39 | 26.32142 | -82.14659 | 36026 ft | 398 kts | 321° |
| 2026-05-06 00:40 | 26.36542 | -82.18386 | 36027 ft | 396 kts | 321° |
| 2026-05-06 00:40 | 26.40917 | -82.22095 | 36024 ft | 394 kts | 321° |
| 2026-05-06 00:41 | 26.45245 | -82.25769 | 36028 ft | 392 kts | 321° |
| 2026-05-06 00:41 | 26.49585 | -82.29457 | 36027 ft | 391 kts | 321° |
| 2026-05-06 00:42 | 26.53920 | -82.33143 | 36031 ft | 392 kts | 321° |
| 2026-05-06 00:42 | 26.57534 | -82.36220 | 36032 ft | 392 kts | 321° |
| 2026-05-06 00:43 | 26.62587 | -82.40525 | 36033 ft | 394 kts | 321° |
| 2026-05-06 00:43 | 26.66952 | -82.44249 | 36031 ft | 395 kts | 321° |
| 2026-05-06 00:44 | 26.70596 | -82.47359 | 36033 ft | 396 kts | 321° |
| 2026-05-06 00:44 | 26.74985 | -82.51109 | 36035 ft | 397 kts | 321° |
| 2026-05-06 00:45 | 26.79394 | -82.54880 | 36034 ft | 398 kts | 321° |
| 2026-05-06 00:45 | 26.83780 | -82.58636 | 36038 ft | 399 kts | 321° |
| 2026-05-06 00:46 | 26.88191 | -82.62416 | 36037 ft | 399 kts | 321° |
| 2026-05-06 00:46 | 26.92547 | -82.66154 | 36038 ft | 399 kts | 321° |
| 2026-05-06 00:47 | 26.96957 | -82.69941 | 36036 ft | 399 kts | 321° |
| 2026-05-06 00:47 | 27.01331 | -82.73701 | 36038 ft | 398 kts | 321° |
| 2026-05-06 00:48 | 27.05722 | -82.77481 | 36037 ft | 398 kts | 321° |
| 2026-05-06 00:48 | 27.10111 | -82.81261 | 36041 ft | 397 kts | 321° |
| 2026-05-06 00:49 | 27.13816 | -82.85740 | 36039 ft | 395 kts | 300° |
| 2026-05-06 00:49 | 27.15912 | -82.91466 | 36039 ft | 397 kts | 292° |
| 2026-05-06 00:50 | 27.17725 | -82.97336 | 36040 ft | 397 kts | 292° |
| 2026-05-06 00:50 | 27.19543 | -83.03197 | 36044 ft | 397 kts | 292° |
| 2026-05-06 00:51 | 27.21380 | -83.09019 | 36045 ft | 398 kts | 292° |
| 2026-05-06 00:51 | 27.23242 | -83.14882 | 36045 ft | 398 kts | 292° |
| 2026-05-06 00:52 | 27.25110 | -83.20753 | 36043 ft | 399 kts | 292° |
| 2026-05-06 00:52 | 27.26975 | -83.26625 | 36045 ft | 399 kts | 292° |
| 2026-05-06 00:53 | 27.28831 | -83.32478 | 36044 ft | 400 kts | 292° |
| 2026-05-06 00:53 | 27.30699 | -83.38383 | 36043 ft | 400 kts | 292° |
| 2026-05-06 00:54 | 27.32565 | -83.44286 | 36045 ft | 400 kts | 292° |
| 2026-05-06 00:54 | 27.34415 | -83.50151 | 36044 ft | 400 kts | 292° |
| 2026-05-06 00:55 | 27.36276 | -83.56062 | 36041 ft | 400 kts | 292° |
| 2026-05-06 00:55 | 27.38131 | -83.61961 | 36044 ft | 400 kts | 292° |
| 2026-05-06 00:56 | 27.39984 | -83.67867 | 36044 ft | 399 kts | 292° |
| 2026-05-06 00:56 | 27.41830 | -83.73757 | 36046 ft | 399 kts | 291° |
| 2026-05-06 00:57 | 27.43664 | -83.79622 | 36042 ft | 399 kts | 291° |
| 2026-05-06 00:57 | 27.45507 | -83.85521 | 36044 ft | 399 kts | 291° |
| 2026-05-06 00:58 | 27.47345 | -83.91416 | 36042 ft | 398 kts | 291° |
| 2026-05-06 00:58 | 27.49179 | -83.97310 | 36041 ft | 398 kts | 291° |
| 2026-05-06 00:59 | 27.50996 | -84.03157 | 36043 ft | 398 kts | 291° |
| 2026-05-06 00:59 | 27.52824 | -84.09051 | 36046 ft | 398 kts | 291° |
| 2026-05-06 01:00 | 27.54650 | -84.14949 | 36045 ft | 398 kts | 291° |
| 2026-05-06 01:00 | 27.56461 | -84.20806 | 36048 ft | 398 kts | 291° |
| 2026-05-06 01:01 | 27.58279 | -84.26698 | 36043 ft | 398 kts | 291° |
| 2026-05-06 01:01 | 27.60094 | -84.32589 | 36050 ft | 398 kts | 291° |
| 2026-05-06 01:02 | 27.61907 | -84.38483 | 36052 ft | 398 kts | 291° |
| 2026-05-06 01:02 | 27.63718 | -84.44380 | 36047 ft | 398 kts | 291° |
| 2026-05-06 01:03 | 27.65519 | -84.50256 | 36047 ft | 398 kts | 291° |
| 2026-05-06 01:03 | 27.67326 | -84.56160 | 36046 ft | 397 kts | 291° |
| 2026-05-06 01:04 | 27.69118 | -84.62027 | 36047 ft | 397 kts | 291° |
| 2026-05-06 01:04 | 27.70918 | -84.67931 | 36044 ft | 397 kts | 291° |
| 2026-05-06 01:05 | 27.72717 | -84.73838 | 36045 ft | 397 kts | 291° |
| 2026-05-06 01:05 | 27.74499 | -84.79703 | 36042 ft | 397 kts | 291° |
| 2026-05-06 01:06 | 27.76288 | -84.85599 | 36042 ft | 396 kts | 291° |
| 2026-05-06 01:06 | 27.78071 | -84.91489 | 36044 ft | 396 kts | 291° |
| 2026-05-06 01:07 | 27.79851 | -84.97376 | 36042 ft | 396 kts | 291° |
| 2026-05-06 01:07 | 27.81629 | -85.03267 | 36044 ft | 396 kts | 291° |
| 2026-05-06 01:08 | 27.83403 | -85.09154 | 36045 ft | 395 kts | 291° |
| 2026-05-06 01:08 | 27.85159 | -85.14995 | 36042 ft | 395 kts | 291° |
| 2026-05-06 01:09 | 27.86926 | -85.20879 | 36040 ft | 395 kts | 291° |
| 2026-05-06 01:09 | 27.88693 | -85.26768 | 36041 ft | 395 kts | 291° |
| 2026-05-06 01:10 | 27.90476 | -85.32645 | 36037 ft | 395 kts | 291° |
| 2026-05-06 01:10 | 27.92253 | -85.38489 | 36038 ft | 395 kts | 291° |
| 2026-05-06 01:11 | 27.94037 | -85.44367 | 36037 ft | 395 kts | 291° |
| 2026-05-06 01:11 | 27.95818 | -85.50254 | 36039 ft | 395 kts | 291° |
| 2026-05-06 01:12 | 27.97595 | -85.56144 | 36035 ft | 395 kts | 290° |
| 2026-05-06 01:12 | 27.99357 | -85.61989 | 36035 ft | 395 kts | 290° |
| 2026-05-06 01:13 | 28.01129 | -85.67882 | 36034 ft | 395 kts | 290° |
| 2026-05-06 01:13 | 28.02900 | -85.73778 | 36036 ft | 395 kts | 290° |
| 2026-05-06 01:14 | 28.05548 | -85.82615 | 36034 ft | 395 kts | 290° |
| 2026-05-06 01:14 | 28.07309 | -85.88505 | 36032 ft | 395 kts | 290° |
| 2026-05-06 01:15 | 28.09067 | -85.94398 | 36033 ft | 394 kts | 290° |
| 2026-05-06 01:15 | 28.10811 | -86.00249 | 36033 ft | 394 kts | 290° |
| 2026-05-06 01:16 | 28.12562 | -86.06137 | 36029 ft | 394 kts | 290° |
| 2026-05-06 01:16 | 28.14312 | -86.12032 | 36031 ft | 394 kts | 290° |
| 2026-05-06 01:17 | 28.16058 | -86.17927 | 36030 ft | 394 kts | 290° |
| 2026-05-06 01:17 | 28.17788 | -86.23773 | 36028 ft | 394 kts | 290° |
| 2026-05-06 01:18 | 28.19530 | -86.29672 | 36029 ft | 394 kts | 290° |
| 2026-05-06 01:18 | 28.21265 | -86.35560 | 36029 ft | 394 kts | 290° |
| 2026-05-06 01:19 | 28.22999 | -86.41451 | 36025 ft | 394 kts | 290° |
| 2026-05-06 01:19 | 28.24730 | -86.47345 | 36023 ft | 393 kts | 290° |
| 2026-05-06 01:20 | 28.26446 | -86.53198 | 36023 ft | 393 kts | 290° |
| 2026-05-06 01:20 | 28.28173 | -86.59099 | 36026 ft | 393 kts | 289° |
| 2026-05-06 01:21 | 28.29895 | -86.64993 | 36024 ft | 393 kts | 289° |
| 2026-05-06 01:21 | 28.31615 | -86.70888 | 36026 ft | 393 kts | 289° |
| 2026-05-06 01:22 | 28.33328 | -86.76739 | 36024 ft | 393 kts | 289° |
| 2026-05-06 01:22 | 28.35051 | -86.82620 | 36024 ft | 392 kts | 289° |
| 2026-05-06 01:23 | 28.36775 | -86.88514 | 36026 ft | 392 kts | 289° |
| 2026-05-06 01:23 | 28.38481 | -86.94363 | 36025 ft | 392 kts | 289° |
| 2026-05-06 01:24 | 28.40195 | -87.00250 | 36025 ft | 392 kts | 289° |
| 2026-05-06 01:24 | 28.41906 | -87.06138 | 36023 ft | 392 kts | 289° |
| 2026-05-06 01:25 | 28.43604 | -87.11994 | 36020 ft | 392 kts | 289° |
| 2026-05-06 01:25 | 28.45310 | -87.17885 | 36021 ft | 392 kts | 289° |
| 2026-05-06 01:26 | 28.47013 | -87.23778 | 36023 ft | 392 kts | 289° |
| 2026-05-06 01:26 | 28.48715 | -87.29676 | 36019 ft | 392 kts | 289° |
| 2026-05-06 01:27 | 28.50412 | -87.35571 | 36020 ft | 392 kts | 289° |
| 2026-05-06 01:27 | 28.52101 | -87.41445 | 36022 ft | 392 kts | 289° |
| 2026-05-06 01:28 | 28.53797 | -87.47358 | 36017 ft | 393 kts | 289° |
| 2026-05-06 01:28 | 28.55481 | -87.53238 | 36016 ft | 393 kts | 289° |
| 2026-05-06 01:29 | 28.57171 | -87.59149 | 36016 ft | 393 kts | 289° |
| 2026-05-06 01:29 | 28.58863 | -87.65080 | 36015 ft | 393 kts | 289° |
| 2026-05-06 01:30 | 28.60548 | -87.70996 | 36016 ft | 393 kts | 288° |
| 2026-05-06 01:30 | 28.62233 | -87.76923 | 36015 ft | 393 kts | 288° |
| 2026-05-06 01:31 | 28.63907 | -87.82821 | 36016 ft | 393 kts | 288° |
| 2026-05-06 01:31 | 28.65586 | -87.88749 | 36017 ft | 393 kts | 288° |
| 2026-05-06 01:32 | 28.67266 | -87.94692 | 36012 ft | 393 kts | 288° |
| 2026-05-06 01:32 | 28.68940 | -88.00627 | 36013 ft | 393 kts | 288° |
| 2026-05-06 01:33 | 28.70615 | -88.06570 | 36012 ft | 393 kts | 288° |
| 2026-05-06 01:33 | 28.72275 | -88.12480 | 36014 ft | 393 kts | 288° |
| 2026-05-06 01:34 | 28.73940 | -88.18428 | 36015 ft | 393 kts | 288° |
| 2026-05-06 01:34 | 28.75322 | -88.23375 | 36013 ft | 393 kts | 288° |
| 2026-05-06 01:35 | 28.77250 | -88.30286 | 36010 ft | 393 kts | 288° |
| 2026-05-06 01:35 | 28.78638 | -88.35270 | 36007 ft | 393 kts | 288° |
| 2026-05-06 01:36 | 28.80264 | -88.41119 | 36007 ft | 393 kts | 288° |
| 2026-05-06 01:36 | 28.81914 | -88.47070 | 36005 ft | 393 kts | 288° |
| 2026-05-06 01:37 | 28.83554 | -88.52994 | 36005 ft | 393 kts | 288° |
| 2026-05-06 01:37 | 28.85202 | -88.58957 | 36006 ft | 393 kts | 288° |
| 2026-05-06 01:38 | 28.86836 | -88.64877 | 36005 ft | 393 kts | 287° |
| 2026-05-06 01:38 | 28.88457 | -88.70846 | 36000 ft | 394 kts | 285° |
| 2026-05-06 01:39 | 28.89793 | -88.76920 | 36002 ft | 394 kts | 284° |
| 2026-05-06 01:39 | 28.91063 | -88.83010 | 36003 ft | 394 kts | 284° |
| 2026-05-06 01:40 | 28.92330 | -88.89056 | 35997 ft | 394 kts | 284° |
| 2026-05-06 01:40 | 28.93614 | -88.95135 | 35999 ft | 394 kts | 284° |
| 2026-05-06 01:41 | 28.94901 | -89.01218 | 35996 ft | 394 kts | 284° |
| 2026-05-06 01:41 | 28.96188 | -89.07310 | 35995 ft | 394 kts | 284° |
| 2026-05-06 01:42 | 28.97472 | -89.13403 | 35992 ft | 394 kts | 284° |
| 2026-05-06 01:42 | 28.98745 | -89.19457 | 35990 ft | 394 kts | 283° |
| 2026-05-06 01:43 | 29.00020 | -89.25537 | 35989 ft | 394 kts | 283° |
| 2026-05-06 01:43 | 29.01295 | -89.31631 | 35987 ft | 393 kts | 283° |
| 2026-05-06 01:44 | 29.02565 | -89.37715 | 35986 ft | 393 kts | 283° |
| 2026-05-06 01:44 | 29.03832 | -89.43799 | 35985 ft | 393 kts | 283° |
| 2026-05-06 01:45 | 29.05089 | -89.49849 | 35984 ft | 393 kts | 283° |
| 2026-05-06 01:45 | 29.06352 | -89.55946 | 35981 ft | 393 kts | 283° |
| 2026-05-06 01:46 | 29.07612 | -89.62037 | 35980 ft | 393 kts | 283° |
| 2026-05-06 01:46 | 29.08861 | -89.68094 | 35976 ft | 393 kts | 283° |
| 2026-05-06 01:47 | 29.10115 | -89.74193 | 35976 ft | 394 kts | 283° |
| 2026-05-06 01:47 | 29.11368 | -89.80297 | 35972 ft | 394 kts | 283° |
| 2026-05-06 01:48 | 29.12610 | -89.86362 | 35969 ft | 394 kts | 283° |
| 2026-05-06 01:48 | 29.13856 | -89.92466 | 35970 ft | 394 kts | 283° |
| 2026-05-06 01:49 | 29.15104 | -89.98590 | 35970 ft | 394 kts | 283° |
| 2026-05-06 01:49 | 29.16338 | -90.04664 | 35968 ft | 394 kts | 283° |
| 2026-05-06 01:50 | 29.17567 | -90.10778 | 35971 ft | 394 kts | 281° |
| 2026-05-06 01:50 | 29.18453 | -90.16979 | 35974 ft | 394 kts | 278° |
| 2026-05-06 01:51 | 29.19158 | -90.22900 | 35971 ft | 394 kts | 278° |
| 2026-05-06 01:51 | 29.19913 | -90.29114 | 35973 ft | 394 kts | 278° |
| 2026-05-06 01:52 | 29.20692 | -90.35337 | 35970 ft | 394 kts | 278° |
| 2026-05-06 01:52 | 29.21477 | -90.41548 | 35968 ft | 394 kts | 278° |
| 2026-05-06 01:53 | 29.22257 | -90.47733 | 35966 ft | 394 kts | 278° |
| 2026-05-06 01:53 | 29.23039 | -90.53948 | 35961 ft | 394 kts | 278° |
| 2026-05-06 01:54 | 29.23819 | -90.60174 | 35959 ft | 394 kts | 278° |
| 2026-05-06 01:54 | 29.24595 | -90.66392 | 35961 ft | 395 kts | 278° |
| 2026-05-06 01:55 | 29.25366 | -90.72594 | 35956 ft | 395 kts | 278° |
| 2026-05-06 01:55 | 29.26137 | -90.78820 | 35956 ft | 395 kts | 278° |
| 2026-05-06 01:56 | 29.26906 | -90.85055 | 35952 ft | 395 kts | 277° |
| 2026-05-06 01:56 | 29.27673 | -90.91293 | 35955 ft | 395 kts | 277° |
| 2026-05-06 01:57 | 29.28432 | -90.97502 | 35955 ft | 395 kts | 277° |
| 2026-05-06 01:57 | 29.29193 | -91.03745 | 35957 ft | 396 kts | 277° |
| 2026-05-06 01:58 | 29.29952 | -91.09994 | 35954 ft | 396 kts | 277° |
| 2026-05-06 01:58 | 29.30709 | -91.16249 | 35949 ft | 396 kts | 277° |
| 2026-05-06 01:59 | 29.31462 | -91.22499 | 35951 ft | 396 kts | 277° |
| 2026-05-06 01:59 | 29.32207 | -91.28715 | 35949 ft | 396 kts | 277° |
| 2026-05-06 02:00 | 29.32953 | -91.34974 | 35950 ft | 396 kts | 277° |
| 2026-05-06 02:00 | 29.33696 | -91.41240 | 35946 ft | 396 kts | 277° |
| 2026-05-06 02:01 | 29.34437 | -91.47505 | 35944 ft | 396 kts | 277° |
| 2026-05-06 02:01 | 29.35175 | -91.53763 | 35946 ft | 396 kts | 277° |
| 2026-05-06 02:02 | 29.35908 | -91.60019 | 35947 ft | 396 kts | 277° |
| 2026-05-06 02:02 | 29.36634 | -91.66231 | 35938 ft | 395 kts | 277° |
| 2026-05-06 02:03 | 29.37362 | -91.72486 | 35940 ft | 395 kts | 277° |
| 2026-05-06 02:03 | 29.38087 | -91.78744 | 35934 ft | 395 kts | 276° |
| 2026-05-06 02:04 | 29.38804 | -91.84956 | 35929 ft | 395 kts | 276° |
| 2026-05-06 02:04 | 29.39522 | -91.91209 | 35926 ft | 394 kts | 276° |
| 2026-05-06 02:05 | 29.40234 | -91.97425 | 35925 ft | 394 kts | 276° |
| 2026-05-06 02:05 | 29.40945 | -92.03669 | 35922 ft | 394 kts | 276° |
| 2026-05-06 02:06 | 29.41653 | -92.09907 | 35921 ft | 394 kts | 276° |
| 2026-05-06 02:06 | 29.42357 | -92.16142 | 35921 ft | 394 kts | 276° |
| 2026-05-06 02:07 | 29.43058 | -92.22377 | 35917 ft | 394 kts | 276° |
| 2026-05-06 02:07 | 29.43752 | -92.28567 | 35919 ft | 393 kts | 276° |
| 2026-05-06 02:08 | 29.44448 | -92.34809 | 35915 ft | 393 kts | 276° |
| 2026-05-06 02:08 | 29.45140 | -92.41039 | 35912 ft | 393 kts | 276° |
| 2026-05-06 02:09 | 29.45770 | -92.47281 | 35914 ft | 393 kts | 273° |
| 2026-05-06 02:09 | 29.46077 | -92.53497 | 35915 ft | 393 kts | 272° |
| 2026-05-06 02:10 | 29.46341 | -92.59762 | 35913 ft | 393 kts | 272° |
| 2026-05-06 02:10 | 29.46619 | -92.66022 | 35915 ft | 393 kts | 272° |
| 2026-05-06 02:11 | 29.46904 | -92.72284 | 35916 ft | 393 kts | 272° |
| 2026-05-06 02:11 | 29.47188 | -92.78512 | 35916 ft | 392 kts | 272° |
| 2026-05-06 02:12 | 29.47471 | -92.84766 | 35916 ft | 392 kts | 272° |
| 2026-05-06 02:12 | 29.47750 | -92.91029 | 35913 ft | 392 kts | 272° |
| 2026-05-06 02:13 | 29.48027 | -92.97282 | 35912 ft | 392 kts | 272° |
| 2026-05-06 02:13 | 29.48300 | -93.03525 | 35911 ft | 392 kts | 272° |
| 2026-05-06 02:14 | 29.48568 | -93.09768 | 35912 ft | 391 kts | 272° |
| 2026-05-06 02:14 | 29.48818 | -93.15963 | 35913 ft | 391 kts | 271° |
| 2026-05-06 02:15 | 29.48941 | -93.19085 | 35780 ft | 393 kts | 271° |
| 2026-05-06 02:15 | 29.49066 | -93.22260 | 35140 ft | 399 kts | 271° |
| 2026-05-06 02:15 | 29.49191 | -93.25443 | 34412 ft | 400 kts | 271° |
| 2026-05-06 02:15 | 29.49316 | -93.28640 | 33614 ft | 402 kts | 271° |
| 2026-05-06 02:16 | 29.49441 | -93.31865 | 32716 ft | 404 kts | 271° |
| 2026-05-06 02:16 | 29.49566 | -93.35091 | 32020 ft | 403 kts | 271° |
| 2026-05-06 02:16 | 29.49690 | -93.38290 | 31414 ft | 399 kts | 271° |
| 2026-05-06 02:16 | 29.49811 | -93.41462 | 30819 ft | 395 kts | 272° |
| 2026-05-06 02:17 | 29.49929 | -93.44564 | 30246 ft | 392 kts | 272° |
| 2026-05-06 02:17 | 29.50048 | -93.47683 | 29607 ft | 389 kts | 272° |
| 2026-05-06 02:17 | 29.50164 | -93.50767 | 28956 ft | 385 kts | 272° |
| 2026-05-06 02:17 | 29.50278 | -93.53818 | 28351 ft | 381 kts | 272° |
| 2026-05-06 02:18 | 29.50390 | -93.56840 | 27750 ft | 377 kts | 272° |
| 2026-05-06 02:18 | 29.50500 | -93.59834 | 27150 ft | 373 kts | 272° |
| 2026-05-06 02:18 | 29.50609 | -93.62804 | 26560 ft | 370 kts | 272° |
| 2026-05-06 02:18 | 29.50716 | -93.65740 | 25986 ft | 368 kts | 272° |
| 2026-05-06 02:19 | 29.50823 | -93.68678 | 25412 ft | 365 kts | 272° |
| 2026-05-06 02:19 | 29.50927 | -93.71581 | 24844 ft | 363 kts | 272° |
| 2026-05-06 02:19 | 29.51031 | -93.74474 | 24274 ft | 362 kts | 272° |
| 2026-05-06 02:19 | 29.51132 | -93.77320 | 23704 ft | 361 kts | 272° |
| 2026-05-06 02:20 | 29.51335 | -93.83071 | 22441 ft | 358 kts | 272° |
| 2026-05-06 02:20 | 29.51435 | -93.85924 | 21854 ft | 356 kts | 272° |
| 2026-05-06 02:20 | 29.51534 | -93.88755 | 21279 ft | 354 kts | 272° |
| 2026-05-06 02:21 | 29.51631 | -93.91578 | 20716 ft | 352 kts | 272° |
| 2026-05-06 02:21 | 29.51727 | -93.94380 | 20322 ft | 346 kts | 272° |
| 2026-05-06 02:21 | 29.51822 | -93.97127 | 19665 ft | 348 kts | 271° |
| 2026-05-06 02:21 | 29.51918 | -93.99900 | 19086 ft | 348 kts | 271° |
| 2026-05-06 02:22 | 29.52012 | -94.02623 | 18644 ft | 345 kts | 271° |
| 2026-05-06 02:22 | 29.52106 | -94.05378 | 18133 ft | 344 kts | 271° |
| 2026-05-06 02:22 | 29.52200 | -94.08120 | 17556 ft | 343 kts | 271° |
| 2026-05-06 02:22 | 29.52293 | -94.10863 | 17005 ft | 342 kts | 271° |
| 2026-05-06 02:23 | 29.52385 | -94.13580 | 16520 ft | 339 kts | 271° |
| 2026-05-06 02:23 | 29.52475 | -94.16281 | 15978 ft | 338 kts | 271° |
| 2026-05-06 02:23 | 29.52564 | -94.18944 | 15457 ft | 337 kts | 271° |
| 2026-05-06 02:23 | 29.52653 | -94.21631 | 15015 ft | 334 kts | 271° |
| 2026-05-06 02:24 | 29.52740 | -94.24243 | 14846 ft | 323 kts | 271° |
| 2026-05-06 02:24 | 29.52823 | -94.26767 | 14700 ft | 307 kts | 271° |
| 2026-05-06 02:24 | 29.53051 | -94.29128 | 14547 ft | 291 kts | 282° |
| 2026-05-06 02:24 | 29.53825 | -94.31249 | 14176 ft | 288 kts | 297° |
| 2026-05-06 02:25 | 29.54910 | -94.33183 | 13837 ft | 289 kts | 300° |
| 2026-05-06 02:25 | 29.56042 | -94.35095 | 13450 ft | 290 kts | 300° |
| 2026-05-06 02:25 | 29.57167 | -94.36987 | 13073 ft | 290 kts | 300° |
| 2026-05-06 02:25 | 29.58301 | -94.38904 | 12711 ft | 290 kts | 300° |
| 2026-05-06 02:26 | 29.59428 | -94.40821 | 12327 ft | 290 kts | 300° |
| 2026-05-06 02:26 | 29.60552 | -94.42743 | 11964 ft | 290 kts | 299° |
| 2026-05-06 02:26 | 29.61677 | -94.44674 | 11593 ft | 290 kts | 299° |
| 2026-05-06 02:26 | 29.62798 | -94.46602 | 11223 ft | 290 kts | 299° |
| 2026-05-06 02:27 | 29.63920 | -94.48536 | 10855 ft | 291 kts | 299° |
| 2026-05-06 02:27 | 29.65047 | -94.50477 | 10485 ft | 292 kts | 299° |
| 2026-05-06 02:27 | 29.66173 | -94.52420 | 10226 ft | 288 kts | 299° |
| 2026-05-06 02:27 | 29.67301 | -94.54297 | 10059 ft | 283 kts | 305° |
| 2026-05-06 02:28 | 29.68786 | -94.55749 | 9899 ft | 285 kts | 322° |
| 2026-05-06 02:28 | 29.70454 | -94.56959 | 9741 ft | 284 kts | 323° |
| 2026-05-06 02:28 | 29.72148 | -94.58158 | 9565 ft | 285 kts | 323° |
| 2026-05-06 02:28 | 29.73843 | -94.59359 | 9390 ft | 286 kts | 323° |
| 2026-05-06 02:29 | 29.75545 | -94.60573 | 9218 ft | 287 kts | 323° |
| 2026-05-06 02:29 | 29.77225 | -94.61778 | 9054 ft | 288 kts | 323° |
| 2026-05-06 02:29 | 29.78932 | -94.63007 | 8881 ft | 290 kts | 323° |
| 2026-05-06 02:29 | 29.80644 | -94.64244 | 8704 ft | 288 kts | 323° |
| 2026-05-06 02:30 | 29.82329 | -94.65461 | 8531 ft | 284 kts | 323° |
| 2026-05-06 02:30 | 29.83992 | -94.66665 | 8364 ft | 281 kts | 323° |
| 2026-05-06 02:30 | 29.85643 | -94.67863 | 8200 ft | 280 kts | 323° |
| 2026-05-06 02:30 | 29.87288 | -94.69058 | 8037 ft | 279 kts | 323° |
| 2026-05-06 02:31 | 29.88931 | -94.70252 | 7868 ft | 278 kts | 323° |
| 2026-05-06 02:31 | 29.90566 | -94.71442 | 7718 ft | 278 kts | 323° |
| 2026-05-06 02:31 | 29.92195 | -94.72626 | 7542 ft | 274 kts | 323° |
| 2026-05-06 02:31 | 29.93791 | -94.73785 | 7387 ft | 268 kts | 323° |
| 2026-05-06 02:32 | 29.95353 | -94.74921 | 7226 ft | 263 kts | 323° |
| 2026-05-06 02:32 | 29.96882 | -94.76033 | 7064 ft | 254 kts | 323° |
| 2026-05-06 02:32 | 29.98250 | -94.77182 | 6851 ft | 239 kts | 305° |
| 2026-05-06 02:32 | 29.98982 | -94.78795 | 6698 ft | 222 kts | 281° |
| 2026-05-06 02:33 | 29.99209 | -94.80544 | 6532 ft | 221 kts | 271° |
| 2026-05-06 02:33 | 29.99244 | -94.81144 | 6470 ft | 222 kts | 270° |
| 2026-05-06 02:34 | 29.99517 | -94.87757 | 5745 ft | 224 kts | 269° |
| 2026-05-06 02:34 | 29.99569 | -94.88948 | 5611 ft | 223 kts | 269° |
| 2026-05-06 02:34 | 29.99648 | -94.90702 | 5451 ft | 213 kts | 269° |
| 2026-05-06 02:34 | 29.99726 | -94.92364 | 5242 ft | 201 kts | 269° |
| 2026-05-06 02:35 | 29.99800 | -94.93926 | 5062 ft | 190 kts | 269° |
| 2026-05-06 02:35 | 29.99870 | -94.95423 | 4901 ft | 184 kts | 268° |
| 2026-05-06 02:35 | 29.99938 | -94.96892 | 4763 ft | 183 kts | 268° |
| 2026-05-06 02:35 | 30.00005 | -94.98347 | 4612 ft | 184 kts | 268° |
| 2026-05-06 02:36 | 30.00073 | -94.99821 | 4460 ft | 184 kts | 268° |
| 2026-05-06 02:36 | 30.00142 | -95.01298 | 4294 ft | 184 kts | 267° |
| 2026-05-06 02:36 | 30.00212 | -95.02779 | 4138 ft | 185 kts | 267° |
| 2026-05-06 02:36 | 30.00281 | -95.04264 | 3995 ft | 185 kts | 267° |
| 2026-05-06 02:37 | 30.00350 | -95.05732 | 3833 ft | 186 kts | 267° |
| 2026-05-06 02:37 | 30.00432 | -95.07222 | 3658 ft | 187 kts | 270° |
| 2026-05-06 02:37 | 30.00601 | -95.08700 | 3505 ft | 184 kts | 269° |
| 2026-05-06 02:37 | 30.00698 | -95.10148 | 3361 ft | 178 kts | 266° |
| 2026-05-06 02:38 | 30.00730 | -95.11554 | 3209 ft | 174 kts | 263° |
| 2026-05-06 02:38 | 30.00738 | -95.12914 | 3077 ft | 164 kts | 263° |
| 2026-05-06 02:38 | 30.00738 | -95.14205 | 3001 ft | 157 kts | 262° |
| 2026-05-06 02:38 | 30.00735 | -95.15479 | 2975 ft | 161 kts | 262° |
| 2026-05-06 02:39 | 30.00733 | -95.16752 | 2758 ft | 156 kts | 262° |
| 2026-05-06 02:39 | 30.00733 | -95.17965 | 2560 ft | 146 kts | 261° |
| 2026-05-06 02:39 | 30.00731 | -95.19106 | 2405 ft | 143 kts | 260° |
| 2026-05-06 02:39 | 30.00728 | -95.20253 | 2214 ft | 141 kts | 259° |
| 2026-05-06 02:40 | 30.00727 | -95.21370 | 2024 ft | 137 kts | 259° |
| 2026-05-06 02:40 | 30.00724 | -95.22472 | 1853 ft | 139 kts | 259° |
| 2026-05-06 02:40 | 30.00724 | -95.23584 | 1670 ft | 138 kts | 259° |
| 2026-05-06 02:40 | 30.00721 | -95.24694 | 1503 ft | 140 kts | 261° |
| 2026-05-06 02:41 | 30.00721 | -95.25823 | 1309 ft | 140 kts | 261° |
| 2026-05-06 02:41 | 30.00721 | -95.26931 | 1103 ft | 139 kts | 261° |
| 2026-05-06 02:41 | 30.00716 | -95.28061 | 934 ft | 138 kts | 264° |
| 2026-05-06 02:41 | 30.00715 | -95.29205 | 757 ft | 141 kts | 265° |
| 2026-05-06 02:42 | 30.00716 | -95.30314 | 617 ft | 142 kts | 264° |
| 2026-05-06 02:42 | 30.00731 | -95.31470 | 392 ft | 145 kts | 266° |
| 2026-05-06 02:42 | 30.00725 | -95.32609 | 197 ft | 139 kts | 264° |
| 2026-05-06 02:42 | 30.00711 | -95.33703 | 103 ft | 128 kts | 268° |
| 2026-05-06 02:43 | 30.00714 | -95.34552 | 101 ft | 83 kts | 269° |
| 2026-05-06 02:43 | 30.00713 | -95.34906 | 100 ft | 0 kts | 274° |
| 2026-05-06 02:43 | 30.00715 | -95.34937 | 100 ft | 8 kts | 274° |
| 2026-05-06 02:43 | 30.00716 | -95.35019 | 101 ft | 12 kts | 269° |
| 2026-05-06 02:44 | 30.00715 | -95.35136 | 101 ft | 17 kts | 269° |
| 2026-05-06 02:44 | 30.00705 | -95.35288 | 99 ft | 21 kts | 259° |
| 2026-05-06 02:44 | 30.00653 | -95.35451 | 99 ft | 22 kts | 245° |
| 2026-05-06 02:44 | 30.00555 | -95.35582 | 100 ft | 21 kts | 223° |
| 2026-05-06 02:45 | 30.00431 | -95.35651 | 100 ft | 20 kts | 182° |
| 2026-05-06 02:45 | 30.00296 | -95.35644 | 100 ft | 19 kts | 179° |
| 2026-05-06 02:45 | 30.00179 | -95.35593 | 101 ft | 18 kts | 137° |
| 2026-05-06 02:45 | 30.00077 | -95.35512 | 101 ft | 18 kts | 156° |
| 2026-05-06 02:46 | 29.99958 | -95.35481 | 101 ft | 17 kts | 175° |
| 2026-05-06 02:46 | 29.99841 | -95.35480 | 102 ft | 17 kts | 179° |
| 2026-05-06 02:46 | 29.99728 | -95.35484 | 102 ft | 16 kts | 182° |
| 2026-05-06 02:46 | 29.99619 | -95.35483 | 102 ft | 15 kts | 178° |
| 2026-05-06 02:47 | 29.99514 | -95.35485 | 102 ft | 15 kts | 181° |
| 2026-05-06 02:47 | 29.99414 | -95.35483 | 103 ft | 14 kts | 178° |
| 2026-05-06 02:47 | 29.99318 | -95.35483 | 103 ft | 13 kts | 183° |
| 2026-05-06 02:47 | 29.99227 | -95.35485 | 102 ft | 13 kts | 180° |
| 2026-05-06 02:48 | 29.99139 | -95.35482 | 102 ft | 13 kts | 169° |
| 2026-05-06 02:48 | 29.99088 | -95.35411 | 102 ft | 12 kts | 98° |
| 2026-05-06 02:48 | 29.99087 | -95.35313 | 102 ft | 12 kts | 89° |
| 2026-05-06 02:48 | 29.99089 | -95.35219 | 102 ft | 12 kts | 89° |
| 2026-05-06 02:49 | 29.99088 | -95.35126 | 101 ft | 11 kts | 97° |
| 2026-05-06 02:49 | 29.99032 | -95.35077 | 101 ft | 11 kts | 175° |
| 2026-05-06 02:49 | 29.98955 | -95.35072 | 102 ft | 11 kts | 176° |
| 2026-05-06 02:49 | 29.98886 | -95.35086 | 102 ft | 10 kts | 216° |
| 2026-05-06 02:50 | 29.98835 | -95.35132 | 101 ft | 0 kts | 218° |